Time;durP1;ratioP1;P1;durP2;ratioP2;P2;SDS_P1;SDS_P2;PMS_P1;PMS_P2;Temp;Humidity;BMP_temperature;BMP_pressure;BME280_temperature;BME280_humidity;BME280_pressure;Samples;Min_cycle;Max_cycle;Signal;HPM_P1;HPM_P2
2023/11/12 00:00:06;;;;;;;17.33;7.28;;;5.30;99.90;;;;;;4954331;29;20023;-91
2023/11/12 00:02:32;;;;;;;16.90;6.80;;;5.30;99.90;;;;;;4957202;29;20030;-91
2023/11/12 00:04:58;;;;;;;12.05;5.85;;;5.20;99.90;;;;;;4956627;29;20138;-91
2023/11/12 00:07:23;;;;;;;11.75;5.75;;;5.20;99.90;;;;;;4956864;29;20026;-91
2023/11/12 00:09:49;;;;;;;10.57;5.32;;;5.20;99.90;;;;;;4956688;29;20032;-92
2023/11/12 00:12:15;;;;;;;19.88;7.15;;;5.20;99.90;;;;;;4940775;29;20023;-92
2023/11/12 00:14:45;;;;;;;23.48;9.13;;;5.10;99.90;;;;;;4940338;29;20031;-93
2023/11/12 00:17:13;;;;;;;26.52;10.05;;;5.00;99.90;;;;;;4940527;29;20050;-92
2023/11/12 00:19:39;;;;;;;18.55;7.78;;;5.00;99.90;;;;;;4940578;29;20031;-92
2023/11/12 00:22:08;;;;;;;15.40;7.00;;;4.90;99.90;;;;;;4940664;28;20062;-93
2023/11/12 00:24:34;;;;;;;18.25;7.57;;;4.80;99.90;;;;;;4943567;29;20031;-91
2023/11/12 00:27:00;;;;;;;15.40;8.15;;;4.80;99.90;;;;;;4941780;29;20046;-91
2023/11/12 00:29:26;;;;;;;21.20;8.63;;;4.70;99.90;;;;;;4940060;29;20051;-92
2023/11/12 00:31:52;;;;;;;27.05;10.85;;;4.70;99.90;;;;;;4940465;29;20034;-92
2023/11/12 00:34:17;;;;;;;19.88;9.23;;;4.60;99.90;;;;;;4939213;29;20019;-92
2023/11/12 00:36:43;;;;;;;16.92;8.68;;;4.60;99.90;;;;;;4939420;29;20031;-91
2023/11/12 00:39:09;;;;;;;22.63;8.85;;;4.50;99.90;;;;;;4939519;29;20027;-93
2023/11/12 00:41:39;;;;;;;19.52;8.57;;;4.40;99.90;;;;;;4939360;29;20042;-93
2023/11/12 00:44:06;;;;;;;16.58;7.57;;;4.40;99.90;;;;;;4939142;29;20038;-92
2023/11/12 00:46:32;;;;;;;17.13;7.80;;;4.40;99.90;;;;;;4939324;29;20041;-93
2023/11/12 00:48:58;;;;;;;20.48;8.05;;;4.40;99.90;;;;;;4955039;29;20027;-92
2023/11/12 00:51:24;;;;;;;16.15;7.28;;;4.40;99.90;;;;;;4939161;29;20042;-91
2023/11/12 00:53:50;;;;;;;19.67;8.05;;;4.40;99.90;;;;;;4955534;29;20495;-93
2023/11/12 00:56:15;;;;;;;16.73;7.38;;;4.30;99.90;;;;;;4955264;29;20122;-93
2023/11/12 00:58:42;;;;;;;13.75;7.07;;;4.30;99.90;;;;;;4938765;29;20115;-91
2023/11/12 01:01:08;;;;;;;15.00;7.88;;;4.20;99.90;;;;;;4938542;29;20038;-93
2023/11/12 01:03:34;;;;;;;16.95;6.45;;;4.20;99.90;;;;;;4938801;29;20477;-91
2023/11/12 01:06:03;;;;;;;12.73;5.80;;;4.20;99.90;;;;;;4938580;29;20039;-92
2023/11/12 01:08:30;;;;;;;17.38;8.05;;;4.20;99.90;;;;;;4938767;29;20086;-93
2023/11/12 01:10:56;;;;;;;12.10;6.88;;;4.20;99.90;;;;;;4954648;29;20597;-91
2023/11/12 01:13:22;;;;;;;16.45;8.30;;;4.30;99.90;;;;;;4938810;29;20028;-92
2023/11/12 01:15:48;;;;;;;18.75;10.98;;;4.30;99.90;;;;;;4938942;29;20509;-94
2023/11/12 01:18:14;;;;;;;19.20;8.18;;;4.30;99.90;;;;;;4938446;29;20054;-91
2023/11/12 01:20:40;;;;;;;14.82;8.75;;;4.30;99.90;;;;;;4953990;29;20026;-93
2023/11/12 01:23:06;;;;;;;17.55;8.57;;;4.30;99.90;;;;;;4938461;29;20055;-91
2023/11/12 01:25:35;;;;;;;12.40;8.13;;;4.20;99.90;;;;;;4957125;29;20043;-90
2023/11/12 01:28:04;;;;;;;15.73;8.48;;;4.20;99.90;;;;;;4938069;29;20035;-93
2023/11/12 01:30:30;;;;;;;13.68;8.32;;;4.10;99.90;;;;;;4938332;29;20043;-91
2023/11/12 01:32:56;;;;;;;16.33;8.77;;;4.10;99.90;;;;;;4938682;29;20089;-91
2023/11/12 01:35:23;;;;;;;16.88;8.80;;;4.00;99.90;;;;;;4940191;29;20051;-92
2023/11/12 01:37:49;;;;;;;17.42;8.93;;;4.00;99.90;;;;;;4940735;28;20031;-92
2023/11/12 01:40:16;;;;;;;18.55;8.63;;;4.00;99.90;;;;;;4940158;29;20023;-91
2023/11/12 01:42:45;;;;;;;14.77;9.00;;;4.00;99.90;;;;;;4945347;29;20027;-90
2023/11/12 01:45:12;;;;;;;15.88;9.00;;;3.90;99.90;;;;;;4960247;29;20042;-91
2023/11/12 01:47:40;;;;;;;17.42;9.23;;;4.00;99.90;;;;;;4942085;29;20059;-90
2023/11/12 01:50:09;;;;;;;14.82;9.23;;;4.00;99.90;;;;;;4957827;29;20035;-91
2023/11/12 01:52:37;;;;;;;12.48;6.72;;;4.10;99.90;;;;;;4941514;29;20667;-91
2023/11/12 01:55:06;;;;;;;19.45;9.13;;;4.10;99.90;;;;;;4954780;29;20145;-91
2023/11/12 01:57:34;;;;;;;18.77;9.68;;;4.20;99.90;;;;;;4941362;29;20485;-91
2023/11/12 02:00:01;;;;;;;20.23;9.57;;;4.20;99.90;;;;;;4941211;29;20066;-90
2023/11/12 02:02:32;;;;;;;23.30;9.80;;;4.10;99.90;;;;;;4958717;28;20019;-91
2023/11/12 02:04:58;;;;;;;22.23;9.40;;;4.10;99.90;;;;;;4958460;29;20036;-91
2023/11/12 02:07:25;;;;;;;17.77;8.98;;;4.00;99.90;;;;;;4941243;29;20035;-91
2023/11/12 02:09:54;;;;;;;22.10;9.95;;;4.00;99.90;;;;;;4941112;29;20641;-91
2023/11/12 02:12:21;;;;;;;17.63;9.40;;;4.00;99.90;;;;;;4941244;29;20035;-91
2023/11/12 02:14:47;;;;;;;14.43;8.15;;;4.00;99.90;;;;;;4957046;29;20087;-93
2023/11/12 02:17:13;;;;;;;16.83;8.75;;;4.00;99.90;;;;;;4941253;29;20031;-91
2023/11/12 02:19:38;;;;;;;20.35;9.90;;;4.00;99.90;;;;;;4941338;29;20026;-90
2023/11/12 02:22:04;;;;;;;20.85;10.07;;;4.10;99.90;;;;;;4957106;29;20031;-92
2023/11/12 02:24:31;;;;;;;19.75;10.90;;;4.10;99.90;;;;;;4940824;29;20023;-91
2023/11/12 02:26:57;;;;;;;18.52;10.32;;;4.20;99.90;;;;;;4940651;29;20147;-91
2023/11/12 02:29:23;;;;;;;20.67;10.18;;;4.20;99.90;;;;;;4940917;29;20071;-92
2023/11/12 02:31:49;;;;;;;20.60;9.75;;;4.30;99.90;;;;;;4940791;29;20055;-89
2023/11/12 02:34:15;;;;;;;19.00;10.20;;;4.30;99.90;;;;;;4957436;29;20397;-91
2023/11/12 02:36:41;;;;;;;15.98;9.82;;;4.40;99.90;;;;;;4940706;29;20023;-91
2023/11/12 02:39:08;;;;;;;21.95;10.65;;;4.40;99.90;;;;;;4956693;29;20036;-93
2023/11/12 02:41:44;;;;;;;19.25;10.85;;;4.50;99.90;;;;;;4940994;29;20113;-91
2023/11/12 02:44:11;;;;;;;16.40;9.93;;;4.60;99.90;;;;;;4940684;29;20027;-91
2023/11/12 02:46:38;;;;;;;18.60;10.48;;;4.60;99.90;;;;;;4939761;29;20038;-91
2023/11/12 02:49:22;;;;;;;23.35;10.35;;;4.60;99.90;;;;;;4940522;29;20019;-91
2023/11/12 02:51:49;;;;;;;21.80;10.88;;;4.60;99.90;;;;;;4954736;29;20034;-90
2023/11/12 02:54:14;;;;;;;22.00;11.48;;;4.60;99.90;;;;;;4940225;29;20057;-91
2023/11/12 02:56:40;;;;;;;16.92;8.93;;;4.60;99.90;;;;;;4956494;29;20035;-91
2023/11/12 02:59:05;;;;;;;19.00;9.20;;;4.50;99.90;;;;;;4939959;29;20163;-92
2023/11/12 03:01:32;;;;;;;18.65;10.70;;;4.50;99.90;;;;;;4940468;29;20030;-91
2023/11/12 03:03:59;;;;;;;18.98;10.00;;;4.60;99.90;;;;;;4956151;29;20038;-91
2023/11/12 03:06:25;;;;;;;20.02;10.35;;;4.50;99.90;;;;;;4935037;29;20523;-90
2023/11/12 03:08:51;;;;;;;21.58;11.05;;;4.60;99.90;;;;;;4940098;29;20023;-90
2023/11/12 03:11:17;;;;;;;18.23;8.52;;;4.60;99.90;;;;;;4939771;29;20027;-91
2023/11/12 03:13:43;;;;;;;18.63;7.75;;;4.60;99.90;;;;;;4956583;29;20090;-90
2023/11/12 03:16:08;;;;;;;18.77;9.88;;;4.70;99.90;;;;;;4940121;29;20035;-90
2023/11/12 03:18:34;;;;;;;20.38;11.55;;;4.70;99.90;;;;;;4947589;29;20035;-91
2023/11/12 03:21:00;;;;;;;22.67;10.48;;;4.70;99.90;;;;;;4956890;29;20058;-90
2023/11/12 03:23:25;;;;;;;23.70;11.95;;;4.80;99.90;;;;;;4941054;29;20034;-91
2023/11/12 03:25:51;;;;;;;18.35;8.52;;;4.80;99.90;;;;;;4940590;29;20046;-93
2023/11/12 03:28:17;;;;;;;25.48;11.32;;;4.80;99.90;;;;;;4940669;29;20047;-90
2023/11/12 03:30:43;;;;;;;20.65;10.77;;;4.90;99.90;;;;;;4940043;29;20397;-90
2023/11/12 03:33:08;;;;;;;24.45;10.20;;;4.90;99.90;;;;;;4940601;29;20023;-91
2023/11/12 03:35:37;;;;;;;19.48;9.90;;;4.90;99.90;;;;;;4956655;29;20035;-90
2023/11/12 03:38:03;;;;;;;16.25;8.45;;;4.90;99.90;;;;;;4940498;29;20038;-91
2023/11/12 03:40:28;;;;;;;18.90;9.88;;;4.80;99.90;;;;;;4940538;29;20023;-92
2023/11/12 03:42:54;;;;;;;23.08;10.93;;;4.80;99.90;;;;;;4940209;29;20055;-92
2023/11/12 03:45:20;;;;;;;21.52;10.88;;;4.90;99.90;;;;;;4940231;29;20035;-91
2023/11/12 03:47:45;;;;;;;17.85;10.18;;;4.90;99.90;;;;;;4940501;29;20035;-90
2023/11/12 03:50:12;;;;;;;22.23;11.50;;;4.90;99.90;;;;;;4946829;29;20123;-91
2023/11/12 03:52:39;;;;;;;17.50;9.45;;;5.00;99.90;;;;;;4963766;29;20243;-93
2023/11/12 03:55:06;;;;;;;21.63;9.68;;;5.00;99.90;;;;;;4946287;29;20024;-91
2023/11/12 03:57:32;;;;;;;24.70;10.05;;;5.00;99.90;;;;;;4943242;29;20027;-91
2023/11/12 03:59:58;;;;;;;20.92;9.43;;;5.10;99.90;;;;;;4941966;29;20027;-91
2023/11/12 04:02:25;;;;;;;18.25;9.52;;;5.10;99.90;;;;;;4940683;29;20058;-91
2023/11/12 04:04:52;;;;;;;27.50;9.82;;;5.10;99.90;;;;;;4939905;29;20031;-92
2023/11/12 04:07:17;;;;;;;21.35;9.75;;;5.20;99.90;;;;;;4939996;29;20035;-91
2023/11/12 04:09:43;;;;;;;22.95;10.50;;;5.20;99.90;;;;;;4940262;29;20019;-90
2023/11/12 04:12:10;;;;;;;20.60;9.13;;;5.20;99.90;;;;;;4957467;29;20027;-90
2023/11/12 04:14:36;;;;;;;15.32;7.85;;;5.20;99.90;;;;;;4939614;29;20103;-92
2023/11/12 04:17:02;;;;;;;17.05;9.23;;;5.20;99.90;;;;;;4939977;29;20054;-90
2023/11/12 04:19:27;;;;;;;15.48;8.95;;;5.20;99.90;;;;;;4940125;29;20031;-91
2023/11/12 04:21:53;;;;;;;16.25;8.68;;;5.20;99.90;;;;;;4940330;29;20433;-91
2023/11/12 04:24:19;;;;;;;18.17;8.30;;;5.30;99.90;;;;;;4939947;29;20031;-90
2023/11/12 04:26:45;;;;;;;21.35;9.48;;;5.30;99.90;;;;;;4939585;29;20027;-91
2023/11/12 04:29:13;;;;;;;19.75;9.13;;;5.30;99.90;;;;;;4939430;29;20043;-91
2023/11/12 04:31:39;;;;;;;19.98;9.68;;;5.30;99.90;;;;;;4939811;29;20036;-90
2023/11/12 04:34:05;;;;;;;17.10;8.95;;;5.30;99.90;;;;;;4939512;29;20023;-92
2023/11/12 04:36:31;;;;;;;16.25;8.02;;;5.30;99.90;;;;;;4939517;29;20635;-91
2023/11/12 04:38:59;;;;;;;17.98;7.53;;;5.30;99.90;;;;;;4938422;29;20485;-90
2023/11/12 04:41:26;;;;;;;11.65;6.68;;;5.30;99.90;;;;;;4939100;29;20553;-91
2023/11/12 04:43:53;;;;;;;16.55;6.25;;;5.30;99.90;;;;;;4939233;29;20031;-90
2023/11/12 04:46:19;;;;;;;16.08;6.78;;;5.40;99.90;;;;;;4939927;29;20058;-90
2023/11/12 04:48:45;;;;;;;11.77;5.57;;;5.40;99.90;;;;;;4939077;29;20437;-90
2023/11/12 04:51:11;;;;;;;9.57;5.25;;;5.40;99.90;;;;;;4938949;29;20110;-91
2023/11/12 04:53:38;;;;;;;11.57;5.72;;;5.40;99.90;;;;;;4940042;29;20034;-90
2023/11/12 04:56:11;;;;;;;11.45;4.95;;;5.40;99.90;;;;;;4940789;29;20426;-90
2023/11/12 04:58:37;;;;;;;10.15;6.15;;;5.50;99.90;;;;;;4943071;29;20090;-91
2023/11/12 05:01:03;;;;;;;12.50;5.78;;;5.40;99.90;;;;;;4943574;29;20095;-90
2023/11/12 05:03:32;;;;;;;11.18;6.82;;;5.40;99.90;;;;;;4946093;29;20023;-93
2023/11/12 05:05:59;;;;;;;17.25;7.22;;;5.50;99.90;;;;;;4944231;29;20049;-91
2023/11/12 05:08:25;;;;;;;15.10;6.85;;;5.40;99.90;;;;;;4942776;29;20095;-90
2023/11/12 05:10:51;;;;;;;13.10;7.03;;;5.50;99.90;;;;;;4949729;29;20035;-91
2023/11/12 05:13:17;;;;;;;16.17;7.07;;;5.50;99.90;;;;;;4952225;29;20031;-91
2023/11/12 05:15:42;;;;;;;11.60;6.78;;;5.50;99.90;;;;;;4939834;29;20031;-91
2023/11/12 05:18:08;;;;;;;20.35;6.78;;;5.40;99.90;;;;;;4940468;29;20489;-90
2023/11/12 05:20:34;;;;;;;10.90;6.47;;;5.40;99.90;;;;;;4940347;29;20055;-92
2023/11/12 05:23:03;;;;;;;16.25;6.82;;;5.50;99.90;;;;;;4954835;29;20027;-90
2023/11/12 05:25:29;;;;;;;15.80;6.72;;;5.50;99.90;;;;;;4922865;29;20046;-90
2023/11/12 05:27:55;;;;;;;13.57;7.00;;;5.50;99.90;;;;;;4938499;29;20032;-92
2023/11/12 05:30:23;;;;;;;19.58;7.07;;;5.50;99.90;;;;;;4938500;29;20037;-90
2023/11/12 05:32:49;;;;;;;21.67;7.60;;;5.50;99.90;;;;;;4939284;29;20031;-89
2023/11/12 05:35:15;;;;;;;17.85;6.90;;;5.50;99.90;;;;;;4938555;29;20094;-90
2023/11/12 05:37:40;;;;;;;11.73;6.90;;;5.50;99.90;;;;;;4938545;29;20027;-89
2023/11/12 05:40:08;;;;;;;13.93;7.13;;;5.50;99.90;;;;;;4939097;29;20027;-90
2023/11/12 05:42:34;;;;;;;21.92;7.85;;;5.50;99.90;;;;;;4938284;29;20090;-91
2023/11/12 05:44:59;;;;;;;17.45;7.60;;;5.50;99.90;;;;;;4938345;29;20035;-90
2023/11/12 05:47:25;;;;;;;17.05;8.10;;;5.50;99.90;;;;;;4938632;29;20493;-90
2023/11/12 05:49:51;;;;;;;21.45;7.93;;;5.50;99.90;;;;;;4939363;29;20023;-91
2023/11/12 05:52:16;;;;;;;16.10;7.60;;;5.50;99.90;;;;;;4939247;29;20473;-90
2023/11/12 05:54:42;;;;;;;19.00;7.18;;;5.50;99.90;;;;;;4939329;29;20035;-91
2023/11/12 05:57:07;;;;;;;14.27;8.05;;;5.50;99.90;;;;;;4939684;29;20130;-90
2023/11/12 05:59:33;;;;;;;16.20;7.90;;;5.50;99.90;;;;;;4939085;29;20024;-91
2023/11/12 06:01:59;;;;;;;22.10;8.85;;;5.50;99.90;;;;;;4940344;29;20039;-90
2023/11/12 06:04:24;;;;;;;13.50;8.32;;;5.50;99.90;;;;;;4938706;29;20031;-91
2023/11/12 06:06:50;;;;;;;18.83;9.20;;;5.50;99.90;;;;;;4938956;29;20039;-91
2023/11/12 06:09:17;;;;;;;17.45;8.82;;;5.60;99.90;;;;;;4955859;29;20070;-91
2023/11/12 06:11:42;;;;;;;21.38;9.20;;;5.50;99.90;;;;;;4958483;28;20023;-91
2023/11/12 06:14:08;;;;;;;20.27;9.57;;;5.50;99.90;;;;;;4980781;28;20133;-91
2023/11/12 06:16:35;;;;;;;21.58;9.35;;;5.60;99.90;;;;;;4976689;28;20027;-92
2023/11/12 06:19:01;;;;;;;18.75;8.77;;;5.50;99.90;;;;;;4979623;28;20038;-90
2023/11/12 06:21:27;;;;;;;17.20;8.77;;;5.50;99.90;;;;;;4974762;28;20047;-91
2023/11/12 06:23:53;;;;;;;19.10;8.73;;;5.60;99.90;;;;;;4978048;28;20027;-93
2023/11/12 06:26:21;;;;;;;18.88;9.02;;;5.60;99.90;;;;;;4977634;28;20055;-91
2023/11/12 06:28:48;;;;;;;20.63;9.55;;;5.60;99.90;;;;;;4977371;28;20051;-90
2023/11/12 06:31:15;;;;;;;17.80;9.48;;;5.60;99.90;;;;;;4977506;28;20434;-92
2023/11/12 06:33:43;;;;;;;20.52;9.98;;;5.60;99.90;;;;;;4991350;28;20039;-91
2023/11/12 06:36:11;;;;;;;19.95;8.18;;;5.50;99.90;;;;;;5000020;28;20085;-90
2023/11/12 06:38:36;;;;;;;20.30;9.10;;;5.50;99.90;;;;;;4999769;28;20031;-90
2023/11/12 06:41:02;;;;;;;19.85;8.63;;;5.50;99.90;;;;;;4999856;28;20173;-90
2023/11/12 06:43:27;;;;;;;18.60;9.25;;;5.50;99.90;;;;;;4996194;28;20027;-91
2023/11/12 06:45:53;;;;;;;14.40;8.38;;;5.50;99.90;;;;;;4997807;28;20050;-89
2023/11/12 06:48:19;;;;;;;25.33;10.05;;;5.50;99.90;;;;;;4996328;28;20039;-90
2023/11/12 06:50:44;;;;;;;19.73;9.05;;;5.50;99.90;;;;;;4996509;28;20026;-89
2023/11/12 06:53:10;;;;;;;19.55;8.15;;;5.50;99.90;;;;;;4985064;28;20047;-91
2023/11/12 06:55:36;;;;;;;20.50;8.18;;;5.50;99.90;;;;;;4989260;28;20031;-90
2023/11/12 06:58:02;;;;;;;17.88;8.15;;;5.40;99.90;;;;;;4991677;28;20027;-90
2023/11/12 07:00:27;;;;;;;18.27;7.65;;;5.50;99.90;;;;;;4980126;28;20436;-92
2023/11/12 07:02:54;;;;;;;14.45;6.88;;;5.40;99.90;;;;;;4980934;28;20027;-91
2023/11/12 07:05:20;;;;;;;15.63;7.00;;;5.40;99.90;;;;;;4977707;28;20050;-91
2023/11/12 07:07:45;;;;;;;14.25;6.05;;;5.40;99.90;;;;;;4964112;28;20036;-91
2023/11/12 07:10:14;;;;;;;11.68;6.65;;;5.40;99.90;;;;;;4943751;29;20027;-92
2023/11/12 07:12:39;;;;;;;13.38;6.28;;;5.40;99.90;;;;;;4960595;29;20470;-92
2023/11/12 07:15:06;;;;;;;16.27;6.80;;;5.30;99.90;;;;;;4946480;28;20031;-90
2023/11/12 07:17:32;;;;;;;12.27;6.05;;;5.40;99.90;;;;;;4957110;29;20433;-90
2023/11/12 07:19:58;;;;;;;10.07;5.78;;;5.30;99.90;;;;;;4954548;29;20054;-90
2023/11/12 07:22:25;;;;;;;12.88;5.53;;;5.30;99.90;;;;;;4947327;29;20019;-92
2023/11/12 07:24:54;;;;;;;12.48;5.15;;;5.30;99.90;;;;;;4944404;29;20039;-91
2023/11/12 07:27:20;;;;;;;9.60;5.40;;;5.30;99.90;;;;;;4957587;28;20035;-91
2023/11/12 07:29:46;;;;;;;11.98;5.22;;;5.30;99.90;;;;;;4941814;29;20048;-90
2023/11/12 07:32:12;;;;;;;10.52;5.55;;;5.30;99.90;;;;;;4957842;28;20035;-91
2023/11/12 07:34:37;;;;;;;12.88;6.55;;;5.30;99.90;;;;;;4959724;28;20030;-92
2023/11/12 07:37:04;;;;;;;15.07;5.65;;;5.30;99.90;;;;;;4948423;28;20027;-90
2023/11/12 07:39:29;;;;;;;14.30;5.68;;;5.30;99.90;;;;;;4964573;28;20047;-91
2023/11/12 07:41:55;;;;;;;11.88;5.45;;;5.20;99.90;;;;;;4963427;28;20022;-92
2023/11/12 07:44:21;;;;;;;9.65;5.70;;;5.20;99.90;;;;;;4960990;28;20067;-91
2023/11/12 07:46:47;;;;;;;13.45;5.78;;;5.30;99.90;;;;;;4959788;28;20046;-90
2023/11/12 07:49:13;;;;;;;10.10;4.85;;;5.20;99.90;;;;;;4949265;28;20497;-91
2023/11/12 07:51:38;;;;;;;10.48;4.95;;;5.20;99.90;;;;;;4961453;28;20035;-91
2023/11/12 07:54:04;;;;;;;10.27;4.88;;;5.20;99.90;;;;;;4946890;28;20046;-91
2023/11/12 07:56:31;;;;;;;15.00;5.60;;;5.20;99.90;;;;;;4951130;28;20353;-91
2023/11/12 07:58:57;;;;;;;12.45;5.65;;;5.20;99.90;;;;;;4962620;28;20450;-91
2023/11/12 08:01:25;;;;;;;10.95;5.63;;;5.20;99.90;;;;;;4964306;28;20090;-93
2023/11/12 08:03:52;;;;;;;16.38;6.07;;;5.20;99.90;;;;;;4969174;28;20028;-91
2023/11/12 08:06:17;;;;;;;12.95;5.55;;;5.20;99.90;;;;;;4945193;29;20889;-91
2023/11/12 08:08:43;;;;;;;13.90;5.38;;;5.20;99.90;;;;;;4955904;28;20099;-92
2023/11/12 08:11:09;;;;;;;10.95;5.57;;;5.20;99.90;;;;;;4950407;28;20023;-89
2023/11/12 08:13:35;;;;;;;10.82;5.72;;;5.20;99.90;;;;;;4944253;28;20027;-91
2023/11/12 08:16:00;;;;;;;9.93;5.40;;;5.20;99.90;;;;;;4956172;28;20090;-89
2023/11/12 08:18:26;;;;;;;18.88;6.05;;;5.20;99.90;;;;;;4958294;28;20030;-92
2023/11/12 08:20:54;;;;;;;15.55;5.55;;;5.20;99.90;;;;;;4945364;28;20077;-90
2023/11/12 08:23:21;;;;;;;9.95;5.28;;;5.20;99.90;;;;;;4953081;28;20042;-91
2023/11/12 08:25:46;;;;;;;15.98;6.50;;;5.20;99.90;;;;;;4962611;28;20038;-91
2023/11/12 08:28:12;;;;;;;8.60;5.50;;;5.20;99.90;;;;;;4962925;28;20043;-91
2023/11/12 08:30:38;;;;;;;14.85;6.28;;;5.30;99.90;;;;;;4964251;28;20042;-92
2023/11/12 08:33:04;;;;;;;13.38;6.05;;;5.30;99.90;;;;;;4954736;28;20026;-90
2023/11/12 08:35:30;;;;;;;13.88;5.15;;;5.30;99.90;;;;;;4964619;28;20424;-89
2023/11/12 08:37:58;;;;;;;10.85;6.45;;;5.30;99.90;;;;;;4970821;28;20034;-91
2023/11/12 08:40:24;;;;;;;15.27;6.57;;;5.40;99.90;;;;;;4964077;28;20023;-91
2023/11/12 08:42:50;;;;;;;20.27;9.68;;;5.40;99.90;;;;;;4947817;28;20033;-91
2023/11/12 08:45:15;;;;;;;12.13;6.22;;;5.40;99.90;;;;;;4962212;28;20030;-90
2023/11/12 08:47:41;;;;;;;28.20;15.65;;;5.40;99.90;;;;;;4965250;28;20086;-91
2023/11/12 08:50:07;;;;;;;20.08;11.13;;;5.40;99.90;;;;;;4965672;28;20023;-92
2023/11/12 08:52:33;;;;;;;26.20;15.40;;;5.40;99.90;;;;;;4966801;28;20030;-91
2023/11/12 08:54:59;;;;;;;16.27;10.57;;;5.40;99.90;;;;;;4964093;28;20031;-91
2023/11/12 08:57:25;;;;;;;26.38;18.85;;;5.40;99.90;;;;;;4953561;28;20034;-91
2023/11/12 08:59:53;;;;;;;18.80;7.55;;;5.40;99.90;;;;;;4971872;28;20031;-91
2023/11/12 09:02:19;;;;;;;14.30;6.50;;;5.50;99.90;;;;;;4961786;28;20038;-89
2023/11/12 09:04:47;;;;;;;11.27;5.63;;;5.50;99.90;;;;;;4965290;28;20023;-90
2023/11/12 09:07:12;;;;;;;11.70;4.90;;;5.50;99.90;;;;;;4966750;28;20028;-92
2023/11/12 09:09:38;;;;;;;9.80;5.60;;;5.50;99.90;;;;;;4957686;28;20049;-91
2023/11/12 09:12:04;;;;;;;9.05;4.45;;;5.50;99.90;;;;;;4966695;28;20044;-91
2023/11/12 09:14:30;;;;;;;8.80;3.60;;;5.60;99.90;;;;;;4949478;28;20050;-90
2023/11/12 09:16:56;;;;;;;9.35;3.83;;;5.50;99.90;;;;;;4970833;28;20315;-91
2023/11/12 09:19:22;;;;;;;7.60;4.25;;;5.60;99.90;;;;;;4946953;28;20038;-91
2023/11/12 09:21:47;;;;;;;9.70;4.38;;;5.60;99.90;;;;;;4966013;28;20026;-91
2023/11/12 09:24:13;;;;;;;6.95;3.97;;;5.70;99.90;;;;;;4966451;28;20015;-92
2023/11/12 09:26:40;;;;;;;6.70;3.65;;;5.70;99.90;;;;;;4964058;28;20672;-90
2023/11/12 09:29:05;;;;;;;7.13;3.58;;;5.70;99.90;;;;;;4964896;28;20060;-91
2023/11/12 09:31:31;;;;;;;9.32;3.88;;;5.80;99.90;;;;;;4962240;28;20058;-90
2023/11/12 09:33:57;;;;;;;8.35;3.45;;;5.80;99.90;;;;;;4949367;28;20031;-91
2023/11/12 09:36:24;;;;;;;5.38;3.30;;;5.80;99.90;;;;;;4962638;28;20030;-91
2023/11/12 09:38:51;;;;;;;9.88;3.45;;;5.90;99.90;;;;;;4968779;28;20036;-91
2023/11/12 09:41:21;;;;;;;8.38;3.58;;;5.90;99.90;;;;;;4970049;28;20075;-90
2023/11/12 09:43:47;;;;;;;11.63;3.40;;;5.90;99.90;;;;;;4959411;28;20103;-90
2023/11/12 09:46:17;;;;;;;9.52;4.10;;;6.00;99.90;;;;;;4968779;28;20043;-90
2023/11/12 09:48:42;;;;;;;8.02;3.38;;;6.00;99.90;;;;;;4951569;28;20027;-90
2023/11/12 09:51:12;;;;;;;9.02;4.10;;;6.00;99.90;;;;;;4969592;28;20095;-91
2023/11/12 09:53:40;;;;;;;11.75;3.45;;;6.00;99.90;;;;;;4965369;28;20179;-90
2023/11/12 09:56:09;;;;;;;6.07;3.55;;;6.00;99.90;;;;;;4951685;28;20034;-90
2023/11/12 09:58:50;;;;;;;5.72;3.35;;;6.10;99.90;;;;;;4946377;28;20023;-91
2023/11/12 10:01:16;;;;;;;10.95;4.03;;;6.10;99.90;;;;;;4953308;28;20098;-92
2023/11/12 10:03:50;;;;;;;7.70;3.70;;;6.10;99.90;;;;;;4966745;28;20530;-90
2023/11/12 10:06:20;;;;;;;7.07;3.75;;;6.10;99.90;;;;;;4970868;28;20035;-90
2023/11/12 10:08:46;;;;;;;12.00;4.00;;;6.10;99.90;;;;;;4966578;28;20029;-91
2023/11/12 10:11:38;;;;;;;8.30;3.70;;;6.10;99.90;;;;;;4965129;28;20272;-91
2023/11/12 10:14:14;;;;;;;9.35;4.20;;;6.20;99.90;;;;;;4961414;28;20082;-90
2023/11/12 10:16:40;;;;;;;7.47;3.58;;;6.20;99.90;;;;;;4961715;28;20465;-91
2023/11/12 10:19:12;;;;;;;7.18;3.75;;;6.20;99.90;;;;;;4958577;28;20038;-92
2023/11/12 10:22:01;;;;;;;7.03;3.97;;;6.20;99.90;;;;;;4958012;28;20121;-90
2023/11/12 10:24:28;;;;;;;9.00;3.58;;;6.20;99.90;;;;;;4957849;28;20024;-90
2023/11/12 10:27:02;;;;;;;10.75;3.50;;;6.20;99.90;;;;;;4960686;28;20050;-91
2023/11/12 10:29:29;;;;;;;8.20;3.70;;;6.20;99.90;;;;;;4959701;28;20047;-92
2023/11/12 10:31:55;;;;;;;10.00;3.83;;;6.20;99.90;;;;;;4954254;28;20402;-90
2023/11/12 10:34:24;;;;;;;10.50;3.92;;;6.20;99.90;;;;;;4958150;29;20038;-90
2023/11/12 10:37:09;;;;;;;12.13;3.85;;;6.30;99.90;;;;;;4956868;29;20023;-91
2023/11/12 10:39:40;;;;;;;12.18;3.67;;;6.20;99.90;;;;;;4939774;29;20035;-89
2023/11/12 10:42:19;;;;;;;8.18;3.40;;;6.20;99.90;;;;;;4940738;29;20042;-91
2023/11/12 10:44:46;;;;;;;7.03;3.70;;;6.20;99.90;;;;;;4952091;29;20054;-92
2023/11/12 10:47:12;;;;;;;7.43;3.22;;;6.20;99.90;;;;;;4940992;29;20031;-92
2023/11/12 10:49:40;;;;;;;6.65;3.35;;;6.20;99.90;;;;;;4941453;28;20027;-91
2023/11/12 10:52:08;;;;;;;7.82;3.83;;;6.20;99.90;;;;;;4941928;29;20027;-91
2023/11/12 10:54:41;;;;;;;6.50;3.83;;;6.20;99.90;;;;;;4961300;29;20489;-91
2023/11/12 10:57:07;;;;;;;13.00;3.75;;;6.20;99.90;;;;;;4945825;29;20035;-90
2023/11/12 10:59:40;;;;;;;7.55;3.70;;;6.20;99.90;;;;;;4948271;29;20030;-88
2023/11/12 11:02:17;;;;;;;7.10;3.97;;;6.20;99.90;;;;;;4957662;29;20385;-90
2023/11/12 11:04:47;;;;;;;7.50;3.90;;;6.20;99.90;;;;;;4940361;29;20023;-89
2023/11/12 11:07:14;;;;;;;7.78;4.70;;;6.30;99.90;;;;;;4939052;29;20477;-90
2023/11/12 11:09:43;;;;;;;9.60;4.05;;;6.30;99.90;;;;;;4953131;29;20023;-92
2023/11/12 11:12:11;;;;;;;12.77;4.88;;;6.30;99.90;;;;;;4939599;29;20058;-90
2023/11/12 11:14:37;;;;;;;9.63;4.47;;;6.40;99.90;;;;;;4955755;29;20386;-89
2023/11/12 11:17:05;;;;;;;8.13;4.10;;;6.40;99.90;;;;;;4939488;29;20034;-90
2023/11/12 11:19:43;;;;;;;11.25;5.45;;;6.40;99.90;;;;;;4954801;29;20023;-90
2023/11/12 11:22:34;;;;;;;14.95;5.47;;;6.50;99.90;;;;;;4954202;29;20385;-91
2023/11/12 11:25:21;;;;;;;8.82;5.35;;;6.60;99.90;;;;;;4939247;29;20114;-89
2023/11/12 11:27:50;;;;;;;13.05;6.30;;;6.60;99.90;;;;;;4955067;29;20035;-92
2023/11/12 11:30:16;;;;;;;13.18;4.90;;;6.70;99.90;;;;;;4938893;29;20465;-88
2023/11/12 11:32:51;;;;;;;14.55;5.53;;;6.60;99.90;;;;;;4938092;28;20023;-91
2023/11/12 11:35:17;;;;;;;17.60;7.38;;;6.70;99.90;;;;;;4953612;29;20118;-91
2023/11/12 11:38:09;;;;;;;12.95;6.07;;;6.70;99.90;;;;;;4939036;29;20121;-91
2023/11/12 11:40:36;;;;;;;15.68;7.03;;;6.60;99.90;;;;;;4938815;28;20019;-90
2023/11/12 11:43:21;;;;;;;13.00;6.72;;;6.60;99.90;;;;;;4955871;28;20319;-91
2023/11/12 11:46:10;;;;;;;14.25;5.75;;;6.60;99.90;;;;;;4934301;29;20039;-90
2023/11/12 11:48:54;;;;;;;9.65;5.07;;;6.60;99.90;;;;;;4938044;29;20016;-91
2023/11/12 11:51:37;;;;;;;13.98;7.35;;;6.60;99.90;;;;;;4946917;28;20019;-90
2023/11/12 11:54:05;;;;;;;12.43;5.78;;;6.60;99.90;;;;;;4954438;29;20043;-89
2023/11/12 11:56:30;;;;;;;11.90;5.35;;;6.60;99.90;;;;;;4938353;29;20027;-90
2023/11/12 11:58:57;;;;;;;12.15;5.68;;;6.60;99.90;;;;;;4938481;29;20020;-90
2023/11/12 12:01:22;;;;;;;10.30;5.75;;;6.60;99.90;;;;;;4940271;29;20015;-90
2023/11/12 12:04:00;;;;;;;13.40;6.22;;;6.60;99.90;;;;;;4941862;29;20034;-89
2023/11/12 12:06:27;;;;;;;14.88;5.68;;;6.60;99.90;;;;;;4939777;29;20171;-91
2023/11/12 12:08:55;;;;;;;12.10;6.45;;;6.60;99.90;;;;;;4939348;29;20027;-90
2023/11/12 12:11:24;;;;;;;12.98;7.20;;;6.60;99.90;;;;;;4939904;29;20039;-90
2023/11/12 12:14:06;;;;;;;13.93;7.15;;;6.60;99.90;;;;;;4946917;29;20366;-90
2023/11/12 12:16:33;;;;;;;16.00;7.70;;;6.60;99.90;;;;;;4959657;29;20047;-90
2023/11/12 12:19:00;;;;;;;12.95;6.60;;;6.60;99.90;;;;;;4944495;29;20023;-89
2023/11/12 12:21:26;;;;;;;15.00;8.45;;;6.60;99.90;;;;;;4944332;29;20025;-91
2023/11/12 12:23:52;;;;;;;13.88;8.07;;;6.60;99.90;;;;;;4941126;29;20106;-91
2023/11/12 12:26:24;;;;;;;18.75;8.70;;;6.60;99.90;;;;;;4955658;29;20053;-92
2023/11/12 12:28:51;;;;;;;16.25;8.23;;;6.60;99.90;;;;;;4938713;29;20493;-90
2023/11/12 12:31:17;;;;;;;14.73;7.50;;;6.60;99.90;;;;;;4938738;29;20019;-91
2023/11/12 12:34:00;;;;;;;15.57;8.60;;;6.60;99.90;;;;;;4943699;29;20358;-93
2023/11/12 12:36:26;;;;;;;13.07;8.00;;;6.60;99.90;;;;;;4956285;29;20111;-92
2023/11/12 12:39:18;;;;;;;15.68;8.75;;;6.60;99.90;;;;;;4938817;29;20054;-90
2023/11/12 12:41:44;;;;;;;19.35;8.25;;;6.60;99.90;;;;;;4951574;29;20037;-91
2023/11/12 12:44:23;;;;;;;23.90;10.20;;;6.60;99.90;;;;;;4937180;29;20027;-90
2023/11/12 12:46:54;;;;;;;13.45;8.23;;;6.60;99.90;;;;;;4938334;29;20046;-89
2023/11/12 12:49:37;;;;;;;17.42;9.88;;;6.60;99.90;;;;;;4937118;29;20042;-91